• Join FlightAware (Why Join?)
  • Login
  • US Flag 
Gobble Gobble! 
01:03AM EST


 

Airport Tracker/Info


-or-


 

Live Flight TrackerFlight Track Log ✈ SWA1586 ✈ 07-May-2013 ✈ KDEN - KSTL

Flight Track Log - Related Links

Times and Time Zones

All times are in EDT time to prevent confusion due to time zone crossing. See the SWA1586 flight status page for this flight to view local times or setup timezone preferences in your user account.

Time Position Orientation Groundspeed Altitude Reporting Facility
EDT Latitude Longitude Course Direction KTS MPH feet Rate Location/Type
11:49PM 39.9000 -104.6667 108° East 174 200 7,800  Level Denver TRACON
11:50PM 39.8833 -104.6000 108° East 227 261 10,100 1,080 Climbing Denver TRACON
11:51PM 39.8483 -104.5111 117° Southeast 291 335 10,000  Descending Denver Center
11:52PM 39.8169 -104.4144 113° Southeast 291 335 10,100 1,200 Climbing Denver Center
11:53PM 39.8058 -104.2994 97° East 318 366 12,500 3,060 Climbing Denver Center
11:54PM 39.7906 -104.1747 99° East 345 397 16,400 3,720 Climbing Denver Center
11:55PM 39.7881 -104.0275 91° East 383 441 20,100 3,720 Climbing Denver Center
11:56PM 39.8003 -103.8881 83° East 390 449 24,000 3,240 Climbing Denver Center
11:57PM 39.8100 -103.7575 84° East 385 443 26,700 2,400 Climbing Denver Center
11:58PM 39.8181 -103.6097 86° East 409 471 29,000 2,160 Climbing Denver Center
11:59PM 39.8106 -103.4519 93° East 432 497 31,100 1,980 Climbing Denver Center
12:00AM 39.8064 -103.2858 92° East 452 520 33,100 2,220 Climbing Denver Center
12:01AM 39.8000 -103.1194 93° East 457 526 35,600 2,220 Climbing Denver Center
12:02AM 39.7931 -102.9519 93° East 460 529 37,600 1,860 Climbing Denver Center
12:03AM 39.7856 -102.7850 93° East 460 529 39,500 1,620 Climbing Denver Center
12:04AM 39.7778 -102.6003 93° East 457 526 41,000 720 Climbing Denver Center
12:05AM 39.7708 -102.4447 93° East 452 520 41,000  Level Denver Center
12:06AM 39.7633 -102.2875 94° East 456 525 41,000  Level Denver Center
12:07AM 39.7553 -102.1072 93° East 449 517 41,000  Level Denver Center
12:08AM 39.7478 -101.9522 94° East 449 517 41,000  Level Denver Center
12:09AM 39.7422 -101.8231 93° East 450 518 41,000  Level Denver Center
12:10AM 39.7311 -101.6161 94° East 451 519 41,000  Level Denver Center
12:11AM 39.7211 -101.4342 94° East 455 524 41,000  Level Denver Center
12:12AM 39.7108 -101.2539 94° East 451 519 41,000  Level Denver Center
12:13AM 39.7025 -101.0997 94° East 449 517 41,000  Level Denver Center
12:14AM 39.6922 -100.9203 94° East 450 518 41,000  Level Denver Center
12:15AM 39.6853 -100.7906 94° East 451 519 41,000  Level Denver Center
12:16AM 39.6742 -100.6086 94° East 453 521 41,000  Level Denver Center
12:17AM 39.6614 -100.3981 94° East 461 531 41,000  Level Denver Center
12:18AM 39.6500 -100.2386 95° East 464 534 41,000  Level Denver Center
12:19AM 39.6386 -100.0514 94° East 467 537 41,000  Level Denver Center
12:20AM 39.6292 -99.8986 95° East 468 539 41,000  Level Denver Center
12:21AM 39.6172 -99.7322 95° East 465 535 41,000  Level Denver Center
12:22AM 39.6053 -99.5639 95° East 469 540 41,000  Level Denver Center
12:23AM 39.5936 -99.3983 95° East 464 534 41,000  Level Denver Center
12:24AM 39.5817 -99.2308 95° East 466 536 41,000  Level Denver Center
12:25AM 39.5694 -99.0661 95° East 463 533 41,000  Level Denver Center
12:26AM 39.5569 -98.8981 95° East 467 537 41,000  Level Denver Center
12:28AM 39.5439 -98.7317 96° East 466 536 41,000  Level Denver Center
12:29AM 39.5292 -98.5342 95° East 461 531 41,000  Level Denver Center
12:30AM 39.5156 -98.3689 96° East 462 532 41,000  Level Denver Center
12:31AM 39.5031 -98.2058 96° East 458 527 41,000  Level Denver Center
12:32AM 39.4892 -98.0433 96° East 457 526 41,000 -480 Level Kansas City Center
12:33AM 39.4764 -97.8919 96° East 446 513 40,100 -1,020 Descending Kansas City Center
12:34AM 39.4628 -97.7153 96° East 459 528 39,000 -600 Descending Kansas City Center
12:35AM 39.4481 -97.5478 96° East 468 539 39,000  Level Kansas City Center
12:36AM 39.4333 -97.3878 97° East 464 534 39,000  Level Kansas City Center
12:37AM 39.4183 -97.2292 97° East 463 533 39,000  Level Kansas City Center
12:38AM 39.4031 -97.0464 96° East 460 529 39,000  Level Kansas City Center
12:39AM 39.3892 -96.8947 97° East 449 517 39,000  Level Kansas City Center
12:40AM 39.3739 -96.7428 97° East 447 514 39,000  Level Kansas City Center
12:41AM 39.3567 -96.5633 97° East 450 518 39,000  Level Kansas City Center
12:42AM 39.3442 -96.4181 96° East 447 514 39,000  Level Kansas City Center
12:43AM 39.3289 -96.2600 97° East 446 513 39,000  Level Kansas City Center
12:44AM 39.3072 -96.0842 99° East 444 511 39,000  Level Kansas City Center
12:45AM 39.2931 -95.9331 97° East 444 511 39,000  Level Kansas City Center
12:46AM 39.2781 -95.7811 97° East 446 513 39,000  Level Kansas City Center
12:47AM 39.2594 -95.6033 98° East 449 517 39,000  Level Kansas City Center
12:48AM 39.2433 -95.4506 98° East 447 514 39,000  Level Kansas City Center
12:49AM 39.2244 -95.2783 98° East 452 520 39,000  Level Kansas City Center
12:50AM 39.2069 -95.1194 98° East 450 518 39,000  Level Kansas City Center
12:51AM 39.1922 -94.9783 98° East 450 518 39,000  Level Kansas City Center
12:52AM 39.1764 -94.7983 96° East 453 521 39,000  Level Kansas City Center
12:53AM 39.1667 -94.6433 95° East 453 521 39,000  Level Kansas City Center
12:54AM 39.1539 -94.4903 96° East 450 518 39,000  Level Kansas City Center
12:55AM 39.1389 -94.3108 96° East 452 520 39,000  Level Kansas City Center
12:56AM 39.1267 -94.1572 96° East 451 519 39,000  Level Kansas City Center
12:57AM 39.1139 -94.0047 96° East 448 516 39,000  Level Kansas City Center
12:58AM 39.1006 -93.8525 96° East 447 514 39,000  Level Kansas City Center
12:59AM 39.0856 -93.6750 96° East 446 513 39,000  Level Kansas City Center
01:00AM 39.0719 -93.5233 97° East 446 513 39,000  Level Kansas City Center
01:01AM 39.0411 -93.3808 106° East 449 517 39,000  Level Kansas City Center
01:02AM 39.0075 -93.2283 106° East 449 517 39,000 -300 Level Kansas City Center
01:03AM 38.9697 -93.0556 106° East 451 519 38,500 -780 Descending Kansas City Center
01:04AM 38.9356 -92.8994 106° East 452 520 37,500 -1,020 Descending Kansas City Center
01:05AM 38.9025 -92.7461 105° East 449 517 36,500 -1,740 Descending Kansas City Center
01:06AM 38.8706 -92.5931 105° East 443 510 34,100 -3,000 Descending Kansas City Center
01:07AM 38.8500 -92.4325 99° East 453 521 30,500 -2,460 Descending Kansas City Center
01:08AM 38.8442 -92.2786 93° East 436 502 29,200 -1,200 Descending Kansas City Center
01:09AM 38.8378 -92.1350 93° East 411 473 28,100 -1,080 Descending Kansas City Center
01:10AM 38.8317 -91.9928 93° East 401 461 27,100 -1,560 Descending Kansas City Center
01:11AM 38.8256 -91.8547 93° East 391 450 25,000 -2,160 Descending Kansas City Center
01:12AM 38.8186 -91.7214 94° East 381 438 22,800 -2,220 Descending Kansas City Center
01:13AM 38.8133 -91.5886 93° East 377 434 20,600 -2,100 Descending Kansas City Center
01:14AM 38.8075 -91.4631 93° East 366 421 18,600 -1,980 Descending Kansas City Center
01:15AM 38.8014 -91.3422 94° East 353 406 16,700 -2,340 Descending Kansas City Center
01:16AM 38.7964 -91.2211 93° East 346 398 14,000 -2,640 Descending Kansas City Center
01:17AM 38.8017 -91.0997 87° East 342 394 11,400 -1,920 Descending Kansas City Center
01:18AM 38.8089 -90.9825 85° East 335 386 10,200 -1,320 Descending Kansas City Center
01:19AM 38.8142 -90.8844 86° East 292 336 8,800 -1,800 Descending Kansas City Center
01:20AM 38.8186 -90.7939 86° East 263 303 6,600 -2,040 Descending Kansas City Center
01:21AM 38.8228 -90.7072 86° East 250 288 4,700 -1,560 Descending Kansas City Center
01:22AM 38.8269 -90.6281 86° East 230 265 3,500 -600 Descending Kansas City Center
01:23AM 38.8297 -90.5550 87° East 215 247 3,500 -300 Level Kansas City Center
01:24AM 38.8169 -90.4992 106° East 192 221 2,900 -780 Descending Kansas City Center
01:25AM 38.7922 -90.4492 122° Southeast 176 203 2,000 -840 Descending Kansas City Center
01:26AM 38.7717 -90.4067 122° Southeast 158 182 1,300 -720 Descending Kansas City Center
01:27AM 38.7522 -90.3669 122° Southeast 141 162 600 -720 Descending Kansas City Center
01:29AM 38.7487 -90.3700 142° Southeast  Level Estimated